Data for 10/15/2017

Time Sea-Level Adjusted Pressure Absolute Pressure Temperature Relative Humidity Dew Point   
(mb) (inHg) (mb) (inHg) (C) (F) (%) (C) (F)
00:05 1029 30.39 858 25.34 5.6 42.1 37 -8 17.6
00:10 1029 30.39 858 25.34 5.6 42.1 37 -8 17.6
00:15 1029 30.39 858 25.34 5.6 42.1 35 -8.7 16.4
00:20 1029 30.39 858 25.34 5.8 42.4 34 -9 15.8
00:25 1029 30.39 858 25.34 5.9 42.6 34 -8.8 16.2
00:30 1029 30.39 858 25.34 5.9 42.7 34 -8.9 16
00:35 1029 30.39 858 25.34 6 42.9 33 -8.9 16
00:40 1029 30.39 858 25.34 6.1 43 33 -9.1 15.6
00:45 1029 30.39 858 25.34 6.2 43.1 33 -8.9 16
00:50 1029 30.39 858 25.34 6.1 43 33 -9 15.8
00:55 1029 30.39 858 25.34 6.1 43 33 -8.9 15.9
01:00 1029 30.39 858 25.34 6.1 43.1 33 -8.8 16.1
01:05 1029 30.39 858 25.34 6.2 43.1 34 -8.6 16.5
01:10 1029 30.39 858 25.34 5.9 42.6 36 -8 17.5
01:15 1029 30.39 859 25.37 5.7 42.3 37 -7.8 17.9
01:20 1029 30.39 859 25.37 5.5 42 38 -7.8 18
01:25 1029 30.39 858 25.34 5.5 41.9 37 -7.9 17.7
01:30 1029 30.39 858 25.34 5.5 41.9 38 -7.9 17.8
01:35 1029 30.39 858 25.34 5.6 42 37 -8.1 17.4
01:40 1029 30.39 858 25.34 5.6 42.1 36 -8.1 17.4
01:45 1029 30.39 858 25.34 5.7 42.2 35 -8.6 16.5
01:50 1029 30.39 858 25.34 5.8 42.5 34 -8.7 16.3
01:55 1029 30.39 859 25.37 5.9 42.6 35 -8.5 16.7
02:00 1029 30.39 858 25.34 5.9 42.6 36 -8.1 17.5
02:05 1029 30.39 858 25.34 5.8 42.5 36 -8.1 17.4
02:10 1029 30.39 858 25.34 5.8 42.4 36 -8 17.6
02:15 1029 30.39 858 25.34 5.7 42.2 37 -7.7 18.1
02:20 1029 30.39 859 25.37 5.6 42.1 37 -7.8 18
02:25 1029 30.39 859 25.37 5.6 42.1 38 -7.6 18.3
02:30 1029 30.39 859 25.37 5.5 41.9 38 -7.7 18.1
02:35 1029 30.39 859 25.37 5.5 42 37 -8 17.6
02:40 1029 30.39 859 25.37 5.6 42.1 37 -8 17.6
02:45 1029 30.39 859 25.37 5.7 42.2 37 -8 17.7
02:50 1029 30.39 859 25.37 5.6 42.1 37 -7.8 17.9
02:55 1030 30.42 859 25.37 5.5 42 37 -7.9 17.8
03:00 1030 30.42 859 25.37 5.5 41.9 37 -7.9 17.7
03:05 1030 30.42 859 25.37 5.5 41.9 37 -8 17.7
03:10 1030 30.42 859 25.37 5.4 41.7 38 -7.8 17.9
03:15 1030 30.42 859 25.37 5.3 41.6 38 -7.8 18
03:20 1030 30.42 859 25.37 5.2 41.4 39 -7.7 18.2
03:25 1030 30.42 859 25.37 5.1 41.1 40 -7.5 18.5
03:30 1030 30.42 859 25.37 4.9 40.9 40 -7.6 18.3
03:35 1030 30.42 859 25.37 4.8 40.7 40 -7.6 18.3
03:40 1030 30.42 859 25.37 4.8 40.6 41 -7.6 18.4
03:45 1030 30.42 859 25.37 4.7 40.4 41 -7.5 18.4
03:50 1030 30.42 859 25.37 4.5 40.1 42 -7.4 18.6
03:55 1030 30.42 859 25.37 4.3 39.7 43 -7.3 18.9
04:00 1030 30.42 859 25.37 3.9 39 44 -7.1 19.1
04:05 1030 30.42 859 25.37 3.7 38.6 46 -7 19.4
04:10 1030 30.42 859 25.37 3.4 38.2 47 -6.8 19.7
04:15 1030 30.42 859 25.37 3.2 37.7 48 -6.8 19.7
04:20 1030 30.42 859 25.37 3.1 37.5 49 -6.7 19.9
04:25 1030 30.42 859 25.37 2.9 37.3 50 -6.4 20.4
04:30 1030 30.42 859 25.37 2.6 36.7 51 -6.4 20.4
04:35 1030 30.42 859 25.37 2.4 36.3 51 -6.7 20
04:40 1030 30.42 859 25.37 2.5 36.6 51 -6.6 20.2
04:45 1030 30.42 859 25.37 2.6 36.7 50 -6.8 19.8
04:50 1030 30.42 859 25.37 2.5 36.5 54 -5.9 21.4
04:55 1030 30.42 859 25.37 2.1 35.8 53 -6.5 20.2
05:00 1030 30.42 859 25.37 2.5 36.5 51 -6.7 19.9
05:05 1030 30.42 859 25.37 2.7 36.9 51 -6.4 20.4
05:10 1030 30.42 859 25.37 2.6 36.7 51 -6.6 20.1
05:15 1030 30.42 859 25.37 2.8 37 50 -6.6 20.2
05:20 1030 30.42 859 25.37 2.8 37.1 50 -6.5 20.3
05:25 1030 30.42 860 25.4 2.8 37 51 -6.3 20.7
05:30 1030 30.42 860 25.4 2.2 36 55 -5.8 21.5
05:35 1030 30.42 860 25.4 1.8 35.2 56 -6 21.2
05:40 1030 30.42 860 25.4 1.6 35 56 -6.2 20.8
05:45 1030 30.42 860 25.4 1.9 35.4 55 -6.2 20.9
05:50 1031 30.45 860 25.4 1.9 35.4 55 -6.1 21
05:55 1031 30.45 860 25.4 2 35.5 55 -6.1 21
06:00 1030 30.42 860 25.4 2.1 35.8 54 -6.3 20.7
06:05 1030 30.42 860 25.4 2.2 36 53 -6.3 20.7
06:10 1030 30.42 860 25.4 2.3 36.2 53 -6.2 20.9
06:15 1030 30.42 860 25.4 2.1 35.7 56 -5.7 21.7
06:20 1030 30.42 860 25.4 1.6 35 58 -5.9 21.5
06:25 1030 30.42 860 25.4 1.6 35 56 -6.1 21
06:30 1031 30.45 860 25.4 1.8 35.3 59 -5.3 22.4
06:35 1031 30.45 860 25.4 1.7 35 61 -5.1 22.8
06:40 1030 30.42 860 25.4 1.4 34.6 60 -5.4 22.3
06:45 1030 30.42 860 25.4 1.3 34.4 62 -5.1 22.8
06:50 1030 30.42 860 25.4 1.1 33.9 65 -4.8 23.3
06:55 1030 30.42 860 25.4 0.9 33.7 63 -5.4 22.3
07:00 1031 30.45 860 25.4 1.1 34.1 63 -5.2 22.7
07:05 1031 30.45 860 25.4 1.4 34.5 58 -5.9 21.4
07:10 1031 30.45 860 25.4 2.3 36.1 55 -5.8 21.6
07:15 1031 30.45 860 25.4 2.7 36.9 54 -5.6 21.9
07:20 1031 30.45 860 25.4 3 37.4 54 -5.3 22.4
07:25 1031 30.45 860 25.4 2.5 36.5 59 -4.7 23.5
07:30 1031 30.45 860 25.4 1.3 34.4 63 -4.9 23.2
07:35 1031 30.45 860 25.4 1.2 34.1 60 -5.8 21.5
07:40 1031 30.45 860 25.4 1.7 35.1 59 -5.5 22.1
07:45 1031 30.45 860 25.4 2.1 35.8 57 -5.5 22.1
07:50 1031 30.45 860 25.4 2.7 36.8 55 -5.5 22.1
07:55 1031 30.45 860 25.4 2.6 36.7 57 -5 23
08:00 1031 30.45 860 25.4 2.5 36.5 59 -4.6 23.7
08:05 1031 30.45 860 25.4 2.7 36.9 60 -4.3 24.2
08:10 1031 30.45 860 25.4 3.3 38 55 -4.7 23.5
08:15 1031 30.45 860 25.4 4 39.1 52 -5 23.1
08:20 1031 30.45 860 25.4 4.3 39.7 51 -5 23.1
08:25 1031 30.45 860 25.4 4.7 40.5 47 -5.6 21.9
08:30 1031 30.45 860 25.4 5.4 41.7 44 -5.9 21.4
08:35 1031 30.45 860 25.4 6 42.8 40 -6.5 20.3
08:40 1031 30.45 860 25.4 6 42.8 40 -6.7 19.9
08:45 1031 30.45 860 25.4 5.8 42.4 40 -6.8 19.7
08:50 1031 30.45 860 25.4 6.2 43.2 38 -7 19.4
08:55 1031 30.45 860 25.4 6.6 43.9 37 -7.2 19.1
09:00 1031 30.45 860 25.4 7.2 45 36 -7 19.4
09:05 1031 30.45 860 25.4 7.7 45.8 34 -7.3 18.8
09:10 1031 30.45 860 25.4 8.1 46.5 33 -7.4 18.7
09:15 1031 30.45 860 25.4 8.5 47.3 33 -6.9 19.5
09:20 1031 30.45 860 25.4 8.5 47.4 32 -7.1 19.2
09:25 1031 30.45 860 25.4 9 48.2 31 -7.1 19.3
09:30 1031 30.45 860 25.4 9.2 48.5 31 -7 19.4
09:35 1031 30.45 860 25.4 9 48.2 31 -7.1 19.2
09:40 1031 30.45 860 25.4 9.1 48.4 31 -7.3 18.8
09:45 1031 30.45 860 25.4 9.2 48.6 31 -6.9 19.6
09:50 1031 30.45 860 25.4 8.5 47.3 32 -7.1 19.2
09:55 1031 30.45 860 25.4 8.9 47.9 32 -6.9 19.6
10:00 1031 30.45 860 25.4 8.8 47.8 32 -7 19.4
10:05 1031 30.45 860 25.4 9 48.2 31 -7.1 19.3
10:10 1031 30.45 860 25.4 9.7 49.5 31 -6.4 20.5
10:15 1030 30.42 860 25.4 9.2 48.6 33 -6.1 21.1
10:20 1030 30.42 860 25.4 9 48.1 32 -6.7 19.9
10:25 1030 30.42 860 25.4 9.4 48.9 32 -6.3 20.6
10:30 1030 30.42 860 25.4 9.4 48.9 32 -6.4 20.6
10:35 1030 30.42 860 25.4 10.3 50.6 31 -6 21.2
10:40 1030 30.42 860 25.4 10.4 50.6 31 -5.8 21.5
10:45 1030 30.42 859 25.37 9.9 49.8 32 -6.1 21
10:50 1030 30.42 859 25.37 10.3 50.6 31 -6 21.2
10:55 1030 30.42 859 25.37 10.4 50.6 32 -5.7 21.8
11:00 1030 30.42 859 25.37 10.8 51.4 30 -5.9 21.4
11:05 1030 30.42 859 25.37 11.6 52.8 29 -5.6 21.8
11:10 1030 30.42 859 25.37 11.5 52.7 30 -5.6 22
11:15 1030 30.42 859 25.37 11.4 52.5 30 -5.7 21.8
11:20 1030 30.42 859 25.37 11.7 53 30 -5.4 22.3
11:25 1030 30.42 859 25.37 12 53.6 30 -5.2 22.7
11:30 1030 30.42 859 25.37 11.9 53.5 30 -5.2 22.7
11:35 1030 30.42 859 25.37 12.1 53.9 30 -4.8 23.4
11:40 1030 30.42 859 25.37 11.1 52.1 31 -5.4 22.3
11:45 1030 30.42 859 25.37 11.7 53.1 30 -5.2 22.6
11:50 1030 30.42 859 25.37 11.9 53.4 30 -5.1 22.9
11:55 1029 30.39 859 25.37 11.6 52.9 30 -5.5 22.2
12:00 1029 30.39 859 25.37 12.1 53.8 29 -5.4 22.3
12:05 1029 30.39 858 25.34 13.1 55.5 28 -5.2 22.7
12:10 1029 30.39 858 25.34 13.3 55.9 28 -4.9 23.2
12:15 1029 30.39 858 25.34 13 55.3 30 -4.4 24.2
12:20 1029 30.39 858 25.34 11.7 53 31 -5 22.9
12:25 1029 30.39 858 25.34 12 53.6 30 -5.2 22.7
12:30 1029 30.39 858 25.34 12.5 54.4 29 -5.1 22.9
12:35 1029 30.39 858 25.34 12.3 54.1 30 -4.9 23.2
12:40 1029 30.39 858 25.34 12.2 54 29 -5.1 22.9
12:45 1029 30.39 858 25.34 13.1 55.6 28 -5.2 22.7
12:50 1029 30.39 858 25.34 13.8 56.8 27 -4.8 23.4
12:55 1028 30.36 858 25.34 13.7 56.6 27 -4.7 23.5
13:00 1028 30.36 858 25.34 13.1 55.6 28 -4.8 23.4
13:05 1028 30.36 857 25.31 14 57.2 27 -4.4 24
13:10 1028 30.36 857 25.31 13.5 56.4 28 -4.5 23.9
13:15 1028 30.36 857 25.31 14 57.1 28 -4.4 24.2
13:20 1028 30.36 857 25.31 12.7 54.8 30 -4.5 23.8
13:25 1028 30.36 857 25.31 13.5 56.2 28 -4.8 23.3
13:30 1028 30.36 857 25.31 14 57.2 27 -4.4 24.1
13:35 1028 30.36 857 25.31 13.2 55.7 29 -4.5 24
13:40 1028 30.36 857 25.31 13.7 56.6 27 -4.7 23.5
13:45 1028 30.36 857 25.31 13.5 56.3 28 -4.7 23.6
13:50 1027 30.33 857 25.31 14.1 57.3 27 -4.6 23.8
13:55 1027 30.33 856 25.28 14.3 57.8 27 -4.5 23.9
14:00 1027 30.33 856 25.28 14.7 58.5 27 -4.1 24.7
14:05 1027 30.33 856 25.28 15.1 59.1 26 -4.1 24.5
14:10 1027 30.33 856 25.28 15.3 59.5 26 -4.2 24.4
14:15 1027 30.33 856 25.28 15.5 59.8 26 -3.7 25.4
14:20 1027 30.33 856 25.28 15.2 59.3 25 -4.5 23.9
14:25 1027 30.33 856 25.28 15.2 59.3 27 -3.6 25.5
14:30 1027 30.33 856 25.28 15.5 59.9 25 -4.4 24.2
14:35 1027 30.33 856 25.28 15.9 60.7 25 -4 24.8
14:40 1027 30.33 856 25.28 15.7 60.2 26 -3.9 24.9
14:45 1027 30.33 856 25.28 15.9 60.6 26 -3.6 25.5
14:50 1027 30.33 856 25.28 15.8 60.4 26 -3.7 25.4
14:55 1027 30.33 856 25.28 15.6 60 26 -3.7 25.3
15:00 1027 30.33 856 25.28 15.3 59.5 27 -3.6 25.6
15:05 1027 30.33 856 25.28 14.6 58.3 28 -3.5 25.7
15:10 1027 30.33 856 25.28 14.9 58.7 27 -3.9 25
15:15 1027 30.33 856 25.28 14.9 58.9 28 -3.3 26.1
15:20 1026 30.3 856 25.28 14.3 57.7 28 -3.8 25.1
15:25 1026 30.3 856 25.28 14.7 58.4 27 -3.9 25
15:30 1026 30.3 856 25.28 15.4 59.8 28 -2.9 26.7
15:35 1026 30.3 856 25.28 14.9 58.8 28 -3.6 25.5
15:40 1026 30.3 855 25.25 14.7 58.5 28 -3.7 25.4
15:45 1026 30.3 855 25.25 14.9 58.9 27 -3.7 25.4
15:50 1026 30.3 855 25.25 15.6 60.1 26 -3.5 25.7
15:55 1026 30.3 855 25.25 15.8 60.4 27 -3.3 26.1
16:00 1026 30.3 855 25.25 15.4 59.7 27 -3.4 26
16:05 1026 30.3 855 25.25 14.8 58.6 28 -3.5 25.6
16:10 1026 30.3 855 25.25 15 59 28 -3.4 26
16:15 1026 30.3 855 25.25 14.7 58.4 28 -3.4 25.9
16:20 1026 30.3 855 25.25 15 59 27 -3.6 25.6
16:25 1026 30.3 855 25.25 14.7 58.4 28 -3.4 25.8
16:30 1026 30.3 855 25.25 14.8 58.6 28 -3.6 25.6
16:35 1026 30.3 855 25.25 15 59 27 -3.8 25.2
16:40 1026 30.3 855 25.25 15.5 59.9 26 -3.6 25.5
16:45 1026 30.3 855 25.25 15.5 59.9 27 -3.5 25.8
16:50 1026 30.3 855 25.25 15.2 59.3 28 -3.2 26.2
16:55 1026 30.3 855 25.25 14.4 58 28 -3.6 25.5
17:00 1026 30.3 855 25.25 14.3 57.8 29 -3.5 25.6
17:05 1026 30.3 855 25.25 14.3 57.8 28 -3.7 25.3
17:10 1026 30.3 855 25.25 14.2 57.5 29 -3.5 25.8
17:15 1026 30.3 855 25.25 13.9 57 29 -3.6 25.5
17:20 1026 30.3 855 25.25 13.8 56.8 30 -3.5 25.7
17:25 1026 30.3 855 25.25 13.6 56.4 30 -3.5 25.6
17:30 1026 30.3 855 25.25 13.4 56.2 31 -3.5 25.8
17:35 1026 30.3 855 25.25 13.3 55.9 32 -3.2 26.3
17:40 1026 30.3 855 25.25 12.9 55.2 32 -3.4 25.9
17:45 1026 30.3 855 25.25 12.6 54.6 36 -2 28.4
17:50 1026 30.3 855 25.25 11.9 53.4 43 -0.4 31.3
17:55 1026 30.3 855 25.25 10.9 51.5 46 -0.3 31.5
18:00 1026 30.3 855 25.25 9.9 49.8 49 -0.4 31.3
18:05 1026 30.3 855 25.25 9.4 48.8 50 -0.6 30.9
18:10 1026 30.3 855 25.25 9 48.2 50 -0.8 30.6
18:15 1026 30.3 855 25.25 8.8 47.9 51 -0.8 30.5
18:20 1026 30.3 855 25.25 8.6 47.5 52 -0.5 31
18:25 1026 30.3 855 25.25 8 46.4 54 -0.7 30.8
18:30 1026 30.3 855 25.25 7.7 45.8 55 -0.7 30.7
18:35 1026 30.3 855 25.25 7.5 45.4 55 -1.1 30.1
18:40 1026 30.3 855 25.25 7.5 45.5 55 -0.9 30.3
18:45 1026 30.3 855 25.25 7.3 45.2 55 -1.1 30
18:50 1026 30.3 855 25.25 7.2 44.9 56 -1 30.1
18:55 1026 30.3 855 25.25 6.9 44.4 56 -1.3 29.7
19:00 1026 30.3 855 25.25 7 44.6 54 -1.6 29.2
19:05 1026 30.3 855 25.25 7.2 45 53 -1.8 28.8
19:10 1026 30.3 855 25.25 7.3 45.1 53 -1.6 29.1
19:15 1026 30.3 855 25.25 7.5 45.5 52 -1.7 29
19:20 1026 30.3 855 25.25 7.1 44.8 55 -1.4 29.5
19:25 1026 30.3 855 25.25 6.6 43.9 56 -1.4 29.5
19:30 1026 30.3 855 25.25 6.2 43.2 57 -1.6 29.1
19:35 1026 30.3 855 25.25 6 42.8 58 -1.5 29.2
19:40 1026 30.3 855 25.25 5.8 42.4 58 -1.7 28.9
19:45 1026 30.3 855 25.25 5.9 42.5 57 -2 28.4
19:50 1026 30.3 855 25.25 6 42.7 56 -2.1 28.2
19:55 1026 30.3 855 25.25 6.2 43.2 53 -2.5 27.5
20:00 1026 30.3 855 25.25 6.7 44.1 50 -3 26.5
20:05 1026 30.3 855 25.25 7.5 45.4 49 -2.5 27.5
20:10 1026 30.3 855 25.25 7.3 45.1 47 -3.1 26.4
20:15 1025 30.27 855 25.25 7.6 45.6 46 -3.3 26.1
20:20 1025 30.27 855 25.25 7.8 46 46 -3.3 26.1
20:25 1025 30.27 855 25.25 7.8 46 45 -3.5 25.7
20:30 1025 30.27 855 25.25 7.9 46.1 45 -3.4 25.9
20:35 1025 30.27 855 25.25 8 46.4 45 -3.3 26.1
20:40 1025 30.27 855 25.25 7.8 46 45 -3.5 25.7
20:45 1025 30.27 855 25.25 7.9 46.3 46 -2.8 26.9
20:50 1025 30.27 855 25.25 7.4 45.2 48 -2.8 27
20:55 1025 30.27 855 25.25 7 44.6 48 -3.1 26.4
21:00 1025 30.27 855 25.25 7.3 45.2 47 -3.4 26
21:05 1025 30.27 854 25.22 7.4 45.3 48 -2.8 27
21:10 1025 30.27 855 25.25 7 44.6 48 -3.2 26.3
21:15 1025 30.27 855 25.25 7.3 45.1 47 -3.3 26.1
21:20 1025 30.27 854 25.22 7.2 44.9 48 -3.2 26.2
21:25 1025 30.27 854 25.22 7 44.7 49 -3 26.5
21:30 1025 30.27 854 25.22 6.7 44.1 50 -3 26.6
21:35 1025 30.27 854 25.22 6.4 43.5 52 -2.8 27
21:40 1025 30.27 854 25.22 6.2 43.1 52 -3.1 26.5
21:45 1025 30.27 854 25.22 6.2 43.1 50 -3.3 26
21:50 1025 30.27 854 25.22 6.1 43 52 -3.1 26.4
21:55 1025 30.27 854 25.22 6.1 42.9 50 -3.5 25.7
22:00 1025 30.27 854 25.22 6.6 43.8 47 -3.8 25.1
22:05 1025 30.27 854 25.22 7.1 44.7 47 -3.5 25.7
22:10 1025 30.27 854 25.22 6.8 44.3 48 -3.3 26.1
22:15 1025 30.27 854 25.22 6.6 43.9 49 -3.5 25.8
22:20 1025 30.27 854 25.22 6.6 43.8 47 -3.9 25
22:25 1025 30.27 854 25.22 6.8 44.3 46 -3.9 25
22:30 1025 30.27 854 25.22 6.7 44 46 -4 24.8
22:35 1025 30.27 854 25.22 6.4 43.6 47 -4 24.8
22:40 1025 30.27 854 25.22 6.7 44.1 46 -4.2 24.5
22:45 1025 30.27 854 25.22 6.7 44 47 -3.9 24.9
22:50 1025 30.27 854 25.22 6.4 43.5 47 -4 24.8
22:55 1025 30.27 854 25.22 6.5 43.6 46 -4.2 24.4
23:00 1025 30.27 854 25.22 6.7 44 45 -4.3 24.3
23:05 1025 30.27 854 25.22 6.8 44.2 45 -4.4 24.1
23:10 1025 30.27 854 25.22 6.9 44.5 44 -4.4 24
23:15 1025 30.27 854 25.22 7.1 44.8 43 -4.6 23.8
23:20 1025 30.27 854 25.22 7.6 45.7 43 -4.1 24.7
23:25 1025 30.27 854 25.22 6.9 44.5 47 -3.6 25.5
23:30 1025 30.27 854 25.22 6.4 43.6 48 -3.7 25.4
23:35 1025 30.27 854 25.22 6.3 43.3 49 -3.7 25.4
23:40 1025 30.27 854 25.22 6.1 42.9 49 -3.9 25
23:45 1025 30.27 854 25.22 6.6 43.8 44 -4.8 23.4
23:50 1025 30.27 854 25.22 6.8 44.2 46 -4.1 24.7
23:55 1025 30.27 854 25.22 6.4 43.4 47 -4.3 24.3
24:00 1025 30.27 854 25.22 6.1 43 47 -4.2 24.4